sensor_id;sensor_type;location;lat;lon;timestamp;P1;durP1;ratioP1;P2;durP2;ratioP2
52360;SDS011;38294;42.966;1.608;2022-09-01T05:02:05;7.05;;;2.10;;
52360;SDS011;38294;42.966;1.608;2022-09-01T05:04:33;7.32;;;2.20;;
52360;SDS011;38294;42.966;1.608;2022-09-01T05:07:03;6.78;;;2.10;;
52360;SDS011;38294;42.966;1.608;2022-09-01T05:09:33;3.50;;;2.10;;
52360;SDS011;38294;42.966;1.608;2022-09-01T05:12:01;6.45;;;1.95;;
52360;SDS011;38294;42.966;1.608;2022-09-01T05:14:38;5.25;;;2.40;;
52360;SDS011;38294;42.966;1.608;2022-09-01T05:17:06;7.57;;;1.98;;
52360;SDS011;38294;42.966;1.608;2022-09-01T05:19:42;5.88;;;2.35;;
52360;SDS011;38294;42.966;1.608;2022-09-01T05:22:11;5.18;;;2.50;;
52360;SDS011;38294;42.966;1.608;2022-09-01T05:24:38;7.30;;;2.30;;
52360;SDS011;38294;42.966;1.608;2022-09-01T05:27:04;3.88;;;1.98;;
52360;SDS011;38294;42.966;1.608;2022-09-01T05:29:31;5.35;;;2.20;;
52360;SDS011;38294;42.966;1.608;2022-09-01T05:31:58;5.30;;;2.38;;
52360;SDS011;38294;42.966;1.608;2022-09-01T05:34:24;3.08;;;1.92;;
52360;SDS011;38294;42.966;1.608;2022-09-01T05:36:52;8.20;;;2.30;;
52360;SDS011;38294;42.966;1.608;2022-09-01T05:39:19;5.82;;;1.98;;
52360;SDS011;38294;42.966;1.608;2022-09-01T05:41:46;5.55;;;2.08;;
52360;SDS011;38294;42.966;1.608;2022-09-01T05:44:13;4.60;;;2.10;;
52360;SDS011;38294;42.966;1.608;2022-09-01T05:46:39;5.45;;;2.28;;
52360;SDS011;38294;42.966;1.608;2022-09-01T05:49:08;5.78;;;2.20;;
52360;SDS011;38294;42.966;1.608;2022-09-01T05:51:39;3.15;;;2.20;;
52360;SDS011;38294;42.966;1.608;2022-09-01T05:54:06;4.55;;;1.98;;
52360;SDS011;38294;42.966;1.608;2022-09-01T05:56:34;5.65;;;2.45;;
52360;SDS011;38294;42.966;1.608;2022-09-01T05:59:05;4.50;;;2.05;;
52360;SDS011;38294;42.966;1.608;2022-09-01T06:01:30;8.70;;;2.42;;
52360;SDS011;38294;42.966;1.608;2022-09-01T06:03:57;6.50;;;2.08;;
52360;SDS011;38294;42.966;1.608;2022-09-01T06:06:28;3.88;;;1.70;;
52360;SDS011;38294;42.966;1.608;2022-09-01T06:09:02;3.58;;;2.13;;
52360;SDS011;38294;42.966;1.608;2022-09-01T06:11:29;3.85;;;2.00;;
52360;SDS011;38294;42.966;1.608;2022-09-01T06:13:57;5.85;;;2.33;;
52360;SDS011;38294;42.966;1.608;2022-09-01T06:16:24;3.50;;;2.22;;
52360;SDS011;38294;42.966;1.608;2022-09-01T06:18:51;5.75;;;2.42;;
52360;SDS011;38294;42.966;1.608;2022-09-01T06:21:18;5.85;;;2.60;;
52360;SDS011;38294;42.966;1.608;2022-09-01T06:23:45;5.47;;;2.25;;
52360;SDS011;38294;42.966;1.608;2022-09-01T06:26:16;5.03;;;2.97;;
52360;SDS011;38294;42.966;1.608;2022-09-01T06:28:48;8.27;;;2.47;;
52360;SDS011;38294;42.966;1.608;2022-09-01T06:33:53;2.30;;;1.98;;
52360;SDS011;38294;42.966;1.608;2022-09-01T06:36:20;5.82;;;2.15;;
52360;SDS011;38294;42.966;1.608;2022-09-01T06:38:48;4.22;;;2.20;;
52360;SDS011;38294;42.966;1.608;2022-09-01T06:41:15;7.43;;;2.05;;
52360;SDS011;38294;42.966;1.608;2022-09-01T06:43:43;3.92;;;2.10;;
52360;SDS011;38294;42.966;1.608;2022-09-01T06:46:13;4.38;;;2.03;;
52360;SDS011;38294;42.966;1.608;2022-09-01T06:48:41;8.65;;;2.35;;
52360;SDS011;38294;42.966;1.608;2022-09-01T06:51:17;4.75;;;1.88;;
52360;SDS011;38294;42.966;1.608;2022-09-01T06:53:45;6.32;;;2.45;;
52360;SDS011;38294;42.966;1.608;2022-09-01T06:56:21;2.92;;;2.00;;
52360;SDS011;38294;42.966;1.608;2022-09-01T06:58:50;7.22;;;2.10;;
52360;SDS011;38294;42.966;1.608;2022-09-01T07:01:17;6.45;;;1.95;;
52360;SDS011;38294;42.966;1.608;2022-09-01T07:03:48;3.95;;;1.70;;
52360;SDS011;38294;42.966;1.608;2022-09-01T07:06:16;5.22;;;2.38;;
52360;SDS011;38294;42.966;1.608;2022-09-01T07:08:44;4.32;;;1.98;;
52360;SDS011;38294;42.966;1.608;2022-09-01T07:11:20;7.78;;;2.63;;
52360;SDS011;38294;42.966;1.608;2022-09-01T07:13:56;6.63;;;2.05;;
52360;SDS011;38294;42.966;1.608;2022-09-01T07:16:26;4.93;;;2.05;;
52360;SDS011;38294;42.966;1.608;2022-09-01T07:18:54;3.67;;;1.90;;
52360;SDS011;38294;42.966;1.608;2022-09-01T07:21:21;6.25;;;2.53;;
52360;SDS011;38294;42.966;1.608;2022-09-01T07:23:47;6.75;;;2.63;;
52360;SDS011;38294;42.966;1.608;2022-09-01T07:26:13;5.40;;;2.15;;
52360;SDS011;38294;42.966;1.608;2022-09-01T07:28:46;3.55;;;2.22;;
52360;SDS011;38294;42.966;1.608;2022-09-01T07:33:49;5.65;;;2.00;;
52360;SDS011;38294;42.966;1.608;2022-09-01T07:36:16;6.20;;;2.03;;
52360;SDS011;38294;42.966;1.608;2022-09-01T07:38:43;6.03;;;2.03;;
52360;SDS011;38294;42.966;1.608;2022-09-01T07:41:09;4.57;;;2.10;;
52360;SDS011;38294;42.966;1.608;2022-09-01T07:43:39;3.40;;;2.00;;
52360;SDS011;38294;42.966;1.608;2022-09-01T07:46:08;5.57;;;2.00;;
52360;SDS011;38294;42.966;1.608;2022-09-01T07:48:35;6.57;;;2.63;;
52360;SDS011;38294;42.966;1.608;2022-09-01T07:51:02;5.53;;;2.00;;
52360;SDS011;38294;42.966;1.608;2022-09-01T07:53:29;3.17;;;1.77;;
52360;SDS011;38294;42.966;1.608;2022-09-01T07:55:58;5.60;;;2.03;;
52360;SDS011;38294;42.966;1.608;2022-09-01T07:58:31;7.65;;;1.83;;
52360;SDS011;38294;42.966;1.608;2022-09-01T08:00:58;9.20;;;1.83;;
52360;SDS011;38294;42.966;1.608;2022-09-01T08:03:27;3.42;;;1.80;;
52360;SDS011;38294;42.966;1.608;2022-09-01T08:05:54;4.65;;;2.30;;
52360;SDS011;38294;42.966;1.608;2022-09-01T08:08:25;4.28;;;1.80;;
52360;SDS011;38294;42.966;1.608;2022-09-01T08:10:51;6.57;;;2.17;;
52360;SDS011;38294;42.966;1.608;2022-09-01T08:13:17;11.15;;;2.20;;
52360;SDS011;38294;42.966;1.608;2022-09-01T08:15:43;8.90;;;2.00;;
52360;SDS011;38294;42.966;1.608;2022-09-01T08:18:09;6.90;;;1.95;;
52360;SDS011;38294;42.966;1.608;2022-09-01T08:20:36;5.70;;;1.90;;
52360;SDS011;38294;42.966;1.608;2022-09-01T08:23:09;3.70;;;1.80;;
52360;SDS011;38294;42.966;1.608;2022-09-01T08:25:35;4.95;;;1.88;;
52360;SDS011;38294;42.966;1.608;2022-09-01T08:28:02;5.25;;;2.30;;
52360;SDS011;38294;42.966;1.608;2022-09-01T08:30:29;1.70;;;1.60;;
52360;SDS011;38294;42.966;1.608;2022-09-01T08:32:56;2.78;;;2.10;;
52360;SDS011;38294;42.966;1.608;2022-09-01T08:35:22;8.05;;;1.85;;
52360;SDS011;38294;42.966;1.608;2022-09-01T08:37:48;4.20;;;2.08;;
52360;SDS011;38294;42.966;1.608;2022-09-01T08:40:15;3.45;;;2.10;;
52360;SDS011;38294;42.966;1.608;2022-09-01T08:45:56;6.03;;;2.38;;
52360;SDS011;38294;42.966;1.608;2022-09-01T08:53:41;13.65;;;2.13;;
52360;SDS011;38294;42.966;1.608;2022-09-01T08:56:11;4.38;;;1.98;;
52360;SDS011;38294;42.966;1.608;2022-09-01T08:58:37;6.22;;;2.10;;
52360;SDS011;38294;42.966;1.608;2022-09-01T09:01:07;6.35;;;2.38;;
52360;SDS011;38294;42.966;1.608;2022-09-01T09:03:39;4.85;;;2.30;;
52360;SDS011;38294;42.966;1.608;2022-09-01T09:06:14;11.93;;;2.45;;
52360;SDS011;38294;42.966;1.608;2022-09-01T09:16:41;3.47;;;2.20;;
52360;SDS011;38294;42.966;1.608;2022-09-01T09:19:30;3.20;;;2.00;;
52360;SDS011;38294;42.966;1.608;2022-09-01T09:22:01;4.90;;;2.67;;
52360;SDS011;38294;42.966;1.608;2022-09-01T09:24:31;4.85;;;2.60;;
52360;SDS011;38294;42.966;1.608;2022-09-01T09:27:20;5.25;;;3.00;;
52360;SDS011;38294;42.966;1.608;2022-09-01T09:29:48;9.55;;;5.03;;
52360;SDS011;38294;42.966;1.608;2022-09-01T09:32:17;6.53;;;4.25;;
52360;SDS011;38294;42.966;1.608;2022-09-01T09:34:43;3.47;;;2.22;;
52360;SDS011;38294;42.966;1.608;2022-09-01T09:37:20;5.85;;;2.38;;
52360;SDS011;38294;42.966;1.608;2022-09-01T09:45:23;7.07;;;2.45;;
52360;SDS011;38294;42.966;1.608;2022-09-01T09:47:54;6.68;;;1.98;;
52360;SDS011;38294;42.966;1.608;2022-09-01T09:50:24;6.25;;;1.88;;
52360;SDS011;38294;42.966;1.608;2022-09-01T09:52:54;5.68;;;2.30;;
52360;SDS011;38294;42.966;1.608;2022-09-01T09:58:33;7.07;;;3.03;;
52360;SDS011;38294;42.966;1.608;2022-09-01T10:01:03;7.07;;;3.20;;
52360;SDS011;38294;42.966;1.608;2022-09-01T10:06:09;5.35;;;3.60;;
52360;SDS011;38294;42.966;1.608;2022-09-01T10:08:53;5.57;;;3.25;;
52360;SDS011;38294;42.966;1.608;2022-09-01T10:11:29;6.75;;;3.20;;
52360;SDS011;38294;42.966;1.608;2022-09-01T10:14:01;7.22;;;3.15;;
52360;SDS011;38294;42.966;1.608;2022-09-01T10:16:30;6.97;;;3.33;;
52360;SDS011;38294;42.966;1.608;2022-09-01T10:18:58;5.40;;;3.42;;
52360;SDS011;38294;42.966;1.608;2022-09-01T10:21:38;6.28;;;3.30;;
52360;SDS011;38294;42.966;1.608;2022-09-01T10:24:51;13.77;;;3.97;;
52360;SDS011;38294;42.966;1.608;2022-09-01T10:27:00;7.50;;;3.85;;
52360;SDS011;38294;42.966;1.608;2022-09-01T10:29:30;5.95;;;3.90;;
52360;SDS011;38294;42.966;1.608;2022-09-01T10:32:01;5.05;;;3.55;;
52360;SDS011;38294;42.966;1.608;2022-09-01T10:34:34;4.53;;;3.15;;
52360;SDS011;38294;42.966;1.608;2022-09-01T10:37:01;10.20;;;4.07;;
52360;SDS011;38294;42.966;1.608;2022-09-01T10:39:29;5.93;;;3.53;;
52360;SDS011;38294;42.966;1.608;2022-09-01T10:41:57;5.80;;;3.42;;
52360;SDS011;38294;42.966;1.608;2022-09-01T10:51:59;5.78;;;3.47;;
52360;SDS011;38294;42.966;1.608;2022-09-01T10:57:10;7.43;;;3.80;;
52360;SDS011;38294;42.966;1.608;2022-09-01T10:59:50;6.38;;;3.70;;
52360;SDS011;38294;42.966;1.608;2022-09-01T11:02:18;6.70;;;3.70;;
52360;SDS011;38294;42.966;1.608;2022-09-01T11:09:43;9.10;;;3.45;;
52360;SDS011;38294;42.966;1.608;2022-09-01T11:14:53;6.32;;;3.88;;
52360;SDS011;38294;42.966;1.608;2022-09-01T11:19:57;7.47;;;3.63;;
52360;SDS011;38294;42.966;1.608;2022-09-01T11:22:58;9.45;;;3.83;;
52360;SDS011;38294;42.966;1.608;2022-09-01T11:25:43;7.60;;;4.10;;
52360;SDS011;38294;42.966;1.608;2022-09-01T11:39:05;8.50;;;4.35;;
52360;SDS011;38294;42.966;1.608;2022-09-01T11:44:27;5.55;;;4.07;;
52360;SDS011;38294;42.966;1.608;2022-09-01T11:47:02;8.88;;;4.20;;
52360;SDS011;38294;42.966;1.608;2022-09-01T11:49:32;5.95;;;3.70;;
52360;SDS011;38294;42.966;1.608;2022-09-01T11:52:01;6.22;;;3.90;;
52360;SDS011;38294;42.966;1.608;2022-09-01T11:54:27;7.18;;;3.92;;
52360;SDS011;38294;42.966;1.608;2022-09-01T11:57:15;7.22;;;4.30;;
52360;SDS011;38294;42.966;1.608;2022-09-01T11:59:42;7.90;;;4.10;;
52360;SDS011;38294;42.966;1.608;2022-09-01T12:02:07;6.03;;;3.60;;
52360;SDS011;38294;42.966;1.608;2022-09-01T12:04:40;6.50;;;3.78;;
52360;SDS011;38294;42.966;1.608;2022-09-01T12:07:07;7.30;;;3.70;;
52360;SDS011;38294;42.966;1.608;2022-09-01T12:15:21;6.15;;;3.70;;
52360;SDS011;38294;42.966;1.608;2022-09-01T12:17:48;5.45;;;3.53;;
52360;SDS011;38294;42.966;1.608;2022-09-01T12:20:25;7.50;;;3.78;;
52360;SDS011;38294;42.966;1.608;2022-09-01T12:22:57;7.28;;;3.63;;
52360;SDS011;38294;42.966;1.608;2022-09-01T12:25:25;6.10;;;3.50;;
52360;SDS011;38294;42.966;1.608;2022-09-01T12:27:53;6.57;;;3.53;;
52360;SDS011;38294;42.966;1.608;2022-09-01T12:30:19;5.88;;;3.67;;
52360;SDS011;38294;42.966;1.608;2022-09-01T12:32:46;5.13;;;3.63;;
52360;SDS011;38294;42.966;1.608;2022-09-01T12:35:16;5.38;;;3.58;;
52360;SDS011;38294;42.966;1.608;2022-09-01T12:37:46;8.60;;;3.63;;
52360;SDS011;38294;42.966;1.608;2022-09-01T12:45:59;9.85;;;3.83;;
52360;SDS011;38294;42.966;1.608;2022-09-01T12:48:28;5.57;;;3.65;;
52360;SDS011;38294;42.966;1.608;2022-09-01T12:51:18;4.95;;;3.30;;
52360;SDS011;38294;42.966;1.608;2022-09-01T12:53:54;4.22;;;3.15;;
52360;SDS011;38294;42.966;1.608;2022-09-01T12:56:25;8.27;;;3.30;;
52360;SDS011;38294;42.966;1.608;2022-09-01T12:59:03;6.68;;;3.65;;
52360;SDS011;38294;42.966;1.608;2022-09-01T13:01:35;7.43;;;3.50;;
52360;SDS011;38294;42.966;1.608;2022-09-01T13:06:45;7.47;;;3.88;;
52360;SDS011;38294;42.966;1.608;2022-09-01T13:09:10;6.18;;;3.40;;
52360;SDS011;38294;42.966;1.608;2022-09-01T13:11:36;4.85;;;3.22;;
52360;SDS011;38294;42.966;1.608;2022-09-01T13:14:02;7.20;;;3.60;;
52360;SDS011;38294;42.966;1.608;2022-09-01T13:16:28;6.60;;;3.78;;
52360;SDS011;38294;42.966;1.608;2022-09-01T13:18:54;6.68;;;3.42;;
52360;SDS011;38294;42.966;1.608;2022-09-01T13:21:20;5.22;;;3.38;;
52360;SDS011;38294;42.966;1.608;2022-09-01T13:23:46;5.38;;;3.55;;
52360;SDS011;38294;42.966;1.608;2022-09-01T13:26:11;8.70;;;3.80;;
52360;SDS011;38294;42.966;1.608;2022-09-01T13:28:37;4.50;;;3.25;;
52360;SDS011;38294;42.966;1.608;2022-09-01T13:31:03;8.43;;;3.85;;
52360;SDS011;38294;42.966;1.608;2022-09-01T13:33:30;6.63;;;3.50;;
52360;SDS011;38294;42.966;1.608;2022-09-01T13:35:59;5.13;;;3.70;;
52360;SDS011;38294;42.966;1.608;2022-09-01T13:38:26;5.80;;;3.30;;
52360;SDS011;38294;42.966;1.608;2022-09-01T13:40:51;4.88;;;3.17;;
52360;SDS011;38294;42.966;1.608;2022-09-01T13:43:18;5.30;;;3.30;;
52360;SDS011;38294;42.966;1.608;2022-09-01T13:45:46;7.68;;;3.40;;
52360;SDS011;38294;42.966;1.608;2022-09-01T13:48:12;8.50;;;3.53;;
52360;SDS011;38294;42.966;1.608;2022-09-01T13:50:39;4.65;;;3.00;;
52360;SDS011;38294;42.966;1.608;2022-09-01T13:53:05;5.65;;;2.97;;
52360;SDS011;38294;42.966;1.608;2022-09-01T13:55:35;4.47;;;3.00;;
52360;SDS011;38294;42.966;1.608;2022-09-01T13:58:03;6.78;;;3.33;;
52360;SDS011;38294;42.966;1.608;2022-09-01T14:00:30;5.05;;;3.15;;
52360;SDS011;38294;42.966;1.608;2022-09-01T14:03:00;4.72;;;3.25;;
52360;SDS011;38294;42.966;1.608;2022-09-01T14:05:29;7.70;;;3.37;;
52360;SDS011;38294;42.966;1.608;2022-09-01T14:07:57;6.20;;;3.00;;
52360;SDS011;38294;42.966;1.608;2022-09-01T14:10:24;5.82;;;2.90;;
52360;SDS011;38294;42.966;1.608;2022-09-01T14:12:52;8.65;;;3.33;;
52360;SDS011;38294;42.966;1.608;2022-09-01T14:15:18;3.80;;;2.75;;
52360;SDS011;38294;42.966;1.608;2022-09-01T14:17:46;6.18;;;3.30;;
52360;SDS011;38294;42.966;1.608;2022-09-01T14:20:15;8.85;;;3.20;;
52360;SDS011;38294;42.966;1.608;2022-09-01T14:22:42;5.07;;;3.00;;
52360;SDS011;38294;42.966;1.608;2022-09-01T14:25:08;7.90;;;3.05;;
52360;SDS011;38294;42.966;1.608;2022-09-01T14:27:37;5.70;;;2.95;;
52360;SDS011;38294;42.966;1.608;2022-09-01T14:30:06;5.75;;;2.85;;
52360;SDS011;38294;42.966;1.608;2022-09-01T14:32:33;5.88;;;3.38;;
52360;SDS011;38294;42.966;1.608;2022-09-01T14:34:59;4.78;;;2.95;;
52360;SDS011;38294;42.966;1.608;2022-09-01T14:37:25;4.90;;;2.85;;
52360;SDS011;38294;42.966;1.608;2022-09-01T14:39:51;5.40;;;2.97;;
52360;SDS011;38294;42.966;1.608;2022-09-01T14:42:18;4.82;;;3.00;;
52360;SDS011;38294;42.966;1.608;2022-09-01T14:44:45;6.97;;;3.05;;
52360;SDS011;38294;42.966;1.608;2022-09-01T14:47:12;5.60;;;3.00;;
52360;SDS011;38294;42.966;1.608;2022-09-01T14:49:38;6.47;;;2.60;;
52360;SDS011;38294;42.966;1.608;2022-09-01T14:52:05;6.55;;;2.70;;
52360;SDS011;38294;42.966;1.608;2022-09-01T14:54:35;4.15;;;3.08;;
52360;SDS011;38294;42.966;1.608;2022-09-01T14:59:28;3.85;;;2.80;;
52360;SDS011;38294;42.966;1.608;2022-09-01T15:01:54;5.72;;;3.20;;
52360;SDS011;38294;42.966;1.608;2022-09-01T15:04:20;3.97;;;2.80;;
52360;SDS011;38294;42.966;1.608;2022-09-01T15:06:45;4.10;;;2.58;;
52360;SDS011;38294;42.966;1.608;2022-09-01T15:09:11;4.30;;;2.70;;
52360;SDS011;38294;42.966;1.608;2022-09-01T15:11:37;3.38;;;2.72;;
52360;SDS011;38294;42.966;1.608;2022-09-01T15:14:02;7.82;;;3.00;;
52360;SDS011;38294;42.966;1.608;2022-09-01T15:16:28;4.80;;;2.72;;
52360;SDS011;38294;42.966;1.608;2022-09-01T15:18:54;5.45;;;3.13;;
52360;SDS011;38294;42.966;1.608;2022-09-01T15:21:20;5.93;;;2.83;;
52360;SDS011;38294;42.966;1.608;2022-09-01T15:23:49;5.72;;;2.85;;
52360;SDS011;38294;42.966;1.608;2022-09-01T15:26:15;7.25;;;3.28;;
52360;SDS011;38294;42.966;1.608;2022-09-01T15:28:45;6.95;;;3.00;;
52360;SDS011;38294;42.966;1.608;2022-09-01T15:31:12;5.57;;;3.17;;
52360;SDS011;38294;42.966;1.608;2022-09-01T15:33:40;5.85;;;3.58;;
52360;SDS011;38294;42.966;1.608;2022-09-01T15:36:07;6.60;;;3.03;;
52360;SDS011;38294;42.966;1.608;2022-09-01T15:38:33;5.90;;;2.97;;
52360;SDS011;38294;42.966;1.608;2022-09-01T15:41:00;6.57;;;3.15;;
52360;SDS011;38294;42.966;1.608;2022-09-01T15:43:26;7.07;;;3.00;;
52360;SDS011;38294;42.966;1.608;2022-09-01T15:45:52;3.58;;;2.95;;
52360;SDS011;38294;42.966;1.608;2022-09-01T15:48:18;5.85;;;3.20;;
52360;SDS011;38294;42.966;1.608;2022-09-01T15:50:44;3.88;;;3.17;;
52360;SDS011;38294;42.966;1.608;2022-09-01T15:53:10;6.03;;;3.33;;
52360;SDS011;38294;42.966;1.608;2022-09-01T15:55:40;6.70;;;3.30;;
52360;SDS011;38294;42.966;1.608;2022-09-01T15:58:11;6.68;;;3.10;;
52360;SDS011;38294;42.966;1.608;2022-09-01T16:00:39;5.85;;;3.38;;
52360;SDS011;38294;42.966;1.608;2022-09-01T16:03:05;3.75;;;2.95;;
52360;SDS011;38294;42.966;1.608;2022-09-01T16:05:33;7.05;;;3.40;;
52360;SDS011;38294;42.966;1.608;2022-09-01T16:08:00;7.05;;;3.30;;
52360;SDS011;38294;42.966;1.608;2022-09-01T16:10:29;7.85;;;3.53;;
52360;SDS011;38294;42.966;1.608;2022-09-01T16:12:55;5.30;;;3.22;;
52360;SDS011;38294;42.966;1.608;2022-09-01T16:15:22;4.97;;;3.17;;
52360;SDS011;38294;42.966;1.608;2022-09-01T16:20:37;5.00;;;3.17;;
52360;SDS011;38294;42.966;1.608;2022-09-01T16:23:18;8.23;;;3.20;;
52360;SDS011;38294;42.966;1.608;2022-09-01T16:25:45;4.60;;;3.33;;
52360;SDS011;38294;42.966;1.608;2022-09-01T16:28:21;5.45;;;3.10;;
52360;SDS011;38294;42.966;1.608;2022-09-01T16:30:51;7.05;;;3.33;;
52360;SDS011;38294;42.966;1.608;2022-09-01T16:33:20;5.55;;;3.60;;
52360;SDS011;38294;42.966;1.608;2022-09-01T16:35:56;3.95;;;3.33;;
52360;SDS011;38294;42.966;1.608;2022-09-01T16:38:48;5.57;;;3.50;;
52360;SDS011;38294;42.966;1.608;2022-09-01T16:43:47;7.97;;;3.42;;
52360;SDS011;38294;42.966;1.608;2022-09-01T16:46:42;4.82;;;3.50;;
52360;SDS011;38294;42.966;1.608;2022-09-01T16:54:39;5.68;;;3.00;;
52360;SDS011;38294;42.966;1.608;2022-09-01T17:00:00;5.95;;;3.75;;
52360;SDS011;38294;42.966;1.608;2022-09-01T17:02:33;6.78;;;3.65;;
52360;SDS011;38294;42.966;1.608;2022-09-01T17:05:08;6.45;;;3.55;;
52360;SDS011;38294;42.966;1.608;2022-09-01T17:07:39;7.70;;;3.70;;
52360;SDS011;38294;42.966;1.608;2022-09-01T17:10:37;5.93;;;3.55;;
52360;SDS011;38294;42.966;1.608;2022-09-01T17:13:17;7.22;;;3.92;;
52360;SDS011;38294;42.966;1.608;2022-09-01T17:18:53;7.85;;;4.15;;
52360;SDS011;38294;42.966;1.608;2022-09-01T17:21:30;7.00;;;4.38;;
52360;SDS011;38294;42.966;1.608;2022-09-01T17:24:06;6.15;;;3.42;;
52360;SDS011;38294;42.966;1.608;2022-09-01T17:26:41;5.95;;;3.67;;
52360;SDS011;38294;42.966;1.608;2022-09-01T17:29:19;5.88;;;3.72;;
52360;SDS011;38294;42.966;1.608;2022-09-01T17:34:45;5.45;;;3.70;;
52360;SDS011;38294;42.966;1.608;2022-09-01T17:40:22;6.00;;;3.83;;
52360;SDS011;38294;42.966;1.608;2022-09-01T17:43:18;8.00;;;4.30;;
52360;SDS011;38294;42.966;1.608;2022-09-01T17:49:43;6.82;;;4.20;;
52360;SDS011;38294;42.966;1.608;2022-09-01T17:57:05;6.38;;;4.13;;
52360;SDS011;38294;42.966;1.608;2022-09-01T17:59:46;8.15;;;4.65;;
52360;SDS011;38294;42.966;1.608;2022-09-01T18:05:08;8.63;;;4.25;;
52360;SDS011;38294;42.966;1.608;2022-09-01T18:10:10;10.43;;;4.95;;
52360;SDS011;38294;42.966;1.608;2022-09-01T18:12:38;9.45;;;5.10;;
52360;SDS011;38294;42.966;1.608;2022-09-01T18:15:12;8.85;;;4.40;;
52360;SDS011;38294;42.966;1.608;2022-09-01T18:17:44;7.25;;;4.38;;
52360;SDS011;38294;42.966;1.608;2022-09-01T18:23:01;6.50;;;3.83;;
52360;SDS011;38294;42.966;1.608;2022-09-01T18:28:11;9.70;;;3.72;;
52360;SDS011;38294;42.966;1.608;2022-09-01T18:39:18;6.50;;;4.07;;
52360;SDS011;38294;42.966;1.608;2022-09-01T18:47:31;10.75;;;3.90;;
52360;SDS011;38294;42.966;1.608;2022-09-01T18:58:58;6.20;;;3.75;;
52360;SDS011;38294;42.966;1.608;2022-09-01T19:01:07;6.65;;;4.20;;
52360;SDS011;38294;42.966;1.608;2022-09-01T19:07:07;5.38;;;4.00;;
52360;SDS011;38294;42.966;1.608;2022-09-01T19:09:48;6.25;;;4.10;;
52360;SDS011;38294;42.966;1.608;2022-09-01T19:26:01;9.32;;;4.63;;
52360;SDS011;38294;42.966;1.608;2022-09-01T19:28:31;7.03;;;4.57;;
52360;SDS011;38294;42.966;1.608;2022-09-01T19:34:02;13.40;;;5.70;;
52360;SDS011;38294;42.966;1.608;2022-09-01T19:39:06;10.65;;;5.30;;
52360;SDS011;38294;42.966;1.608;2022-09-01T19:41:39;8.90;;;5.40;;
52360;SDS011;38294;42.966;1.608;2022-09-01T19:44:19;7.90;;;4.40;;
52360;SDS011;38294;42.966;1.608;2022-09-01T19:47:05;8.07;;;4.90;;
52360;SDS011;38294;42.966;1.608;2022-09-01T19:49:58;8.20;;;5.20;;
52360;SDS011;38294;42.966;1.608;2022-09-01T19:52:30;6.70;;;5.18;;
52360;SDS011;38294;42.966;1.608;2022-09-01T19:55:24;8.48;;;5.20;;
52360;SDS011;38294;42.966;1.608;2022-09-01T20:00:43;6.25;;;4.80;;
52360;SDS011;38294;42.966;1.608;2022-09-01T20:06:10;13.55;;;5.88;;
52360;SDS011;38294;42.966;1.608;2022-09-01T20:16:50;6.88;;;4.60;;
52360;SDS011;38294;42.966;1.608;2022-09-01T20:22:28;9.85;;;5.50;;
52360;SDS011;38294;42.966;1.608;2022-09-01T20:25:25;8.10;;;5.35;;
52360;SDS011;38294;42.966;1.608;2022-09-01T20:28:04;10.82;;;5.70;;
52360;SDS011;38294;42.966;1.608;2022-09-01T20:30:45;21.52;;;12.80;;
52360;SDS011;38294;42.966;1.608;2022-09-01T20:38:18;10.13;;;4.75;;
52360;SDS011;38294;42.966;1.608;2022-09-01T20:41:15;7.97;;;4.10;;
52360;SDS011;38294;42.966;1.608;2022-09-01T20:43:48;8.73;;;4.35;;
